Hlavní strana
METAR-TAF:

METAR-TAF

Letiště :

Letiště Franjo Tuđmana

Záhřeb, Chorvatsko

zeměpisná šířka: 45-44N, zeměpisná délka: 016-04E, výška: 106 m

Aktuální stav počasí

Zpráva byla vytvořena před 23 minutami, v 04:30 UTC
Severovýchodní vítr 9 kt, proměnlivý mezi severním a východoseverovýchodním
Teplota 2°C
Vlhkost vzduchu 75%
Tlak 1029 hPa
Viditelnost 10 km a více
Žádná oblačnost pod 1500 m, nevyskytují se cumulonimby.

METAR: LDZA 170430Z 04009KT 010V070 CAVOK 02/M02 Q1029 NOSIG

Čas: 05:53 (04:53 UTC)

Předpověď počasí

Zpráva byla vytvořena před 5 hodinami a 28 minutami, v 23:25 UTC
Předpověď platná od 17 v 00 UTC do 18 v 00 UTC
Severovýchodní vítr 8 kt
Viditelnost 10 km a více
Žádná oblačnost pod 1500 m, nevyskytují se cumulonimby.
Dočasný
od 17 v 08 UTC do 17 v 16 UTC
Severovýchodní vítr 15 kt

TAF: LDZA 162325Z 1700/1800 05008KT CAVOK TX07/1713Z TN01/1705Z TEMPO 1708/1716 05015KT

Stav a předpovědi počasí z více než 4 000 letišť (zprávy METAR a TAF).

Červené a žluté tečky na mapě představují dostupné meteorologické stanice.

Když kurzor umístíte na tečku, zobrazí se název stanice.

Pak kliknutím zobrazíte stav a předpověď počasí.

Chcete-li změnit mapu, kliknutím na zelené tlačítko se znaménkem +mapu přiblížíte, kliknutím na zelené tlačítko se znaménkem – mapu oddálíte a kliknutím na zelené šipky přejdete na sousední mapy.


METAR-TAF: